createdAt,value
2019-05-15T00:01:08.772Z,8.00
2019-05-15T00:03:39.413Z,8.00
2019-05-15T00:06:10.050Z,8.00
2019-05-15T00:08:40.321Z,7.90
2019-05-15T00:11:10.606Z,7.90
2019-05-15T00:13:40.877Z,7.80
2019-05-15T00:16:11.176Z,7.80
2019-05-15T00:18:41.445Z,7.80
2019-05-15T00:21:11.719Z,7.70
2019-05-15T00:23:42.276Z,7.70
2019-05-15T00:26:12.816Z,7.70
2019-05-15T00:28:43.092Z,7.70
2019-05-15T00:31:13.660Z,7.70
2019-05-15T00:33:43.945Z,7.70
2019-05-15T00:36:14.213Z,7.60
2019-05-15T00:38:44.740Z,7.60
2019-05-15T00:41:15.083Z,7.50
2019-05-15T00:43:45.353Z,7.50
2019-05-15T00:46:15.676Z,7.50
2019-05-15T00:48:45.929Z,7.50
2019-05-15T00:51:16.217Z,7.50
2019-05-15T00:53:48.331Z,7.60
2019-05-15T00:56:19.446Z,7.50
2019-05-15T00:58:49.846Z,7.60
2019-05-15T01:01:20.128Z,7.60
2019-05-15T01:03:50.405Z,7.60
2019-05-15T01:06:20.681Z,7.60
2019-05-15T01:08:50.963Z,7.60
2019-05-15T01:11:21.230Z,7.60
2019-05-15T01:13:51.511Z,7.60
2019-05-15T01:16:21.776Z,7.50
2019-05-15T01:18:52.062Z,7.50
2019-05-15T01:21:22.327Z,7.50
2019-05-15T01:23:52.604Z,7.50
2019-05-15T01:26:22.938Z,7.50
2019-05-15T01:28:53.218Z,7.40
2019-05-15T01:31:23.494Z,7.40
2019-05-15T01:33:53.768Z,7.40
2019-05-15T01:36:24.682Z,7.40
2019-05-15T01:38:54.961Z,7.30
2019-05-15T01:41:25.233Z,7.30
2019-05-15T01:43:57.970Z,7.20
2019-05-15T01:46:28.545Z,7.20
2019-05-15T01:48:59.092Z,7.30
2019-05-15T01:51:29.355Z,7.20
2019-05-15T01:53:59.906Z,7.20
2019-05-15T01:56:30.191Z,7.20
2019-05-15T01:59:00.463Z,7.20
2019-05-15T02:01:30.739Z,7.20
2019-05-15T02:04:01.021Z,7.20
2019-05-15T02:06:31.314Z,7.20
2019-05-15T02:09:01.582Z,7.20
2019-05-15T02:11:31.866Z,7.20
2019-05-15T02:14:02.396Z,7.20
2019-05-15T02:16:32.688Z,7.20
2019-05-15T02:19:03.252Z,7.20
2019-05-15T02:21:34.599Z,7.20
2019-05-15T02:24:07.931Z,7.20
2019-05-15T02:26:38.970Z,7.20
2019-05-15T02:29:11.367Z,7.20
2019-05-15T02:31:43.371Z,7.10
2019-05-15T02:34:14.771Z,7.10
2019-05-15T02:36:45.038Z,7.10
2019-05-15T02:39:18.719Z,7.20
2019-05-15T02:41:49.284Z,7.10
2019-05-15T02:44:20.045Z,7.10
2019-05-15T02:46:50.449Z,7.10
2019-05-15T02:49:20.720Z,7.10
2019-05-15T02:51:51.001Z,7.10
2019-05-15T02:54:21.289Z,7.10
2019-05-15T02:56:51.553Z,7.10
2019-05-15T02:59:21.827Z,7.00
2019-05-15T03:01:52.121Z,7.00
2019-05-15T03:04:22.426Z,7.00
2019-05-15T03:06:52.671Z,7.00
2019-05-15T03:09:22.929Z,7.00
2019-05-15T03:11:53.376Z,7.00
2019-05-15T03:14:23.651Z,6.90
2019-05-15T03:16:54.227Z,6.90
2019-05-15T03:19:24.499Z,6.90
2019-05-15T03:21:55.012Z,6.90
2019-05-15T03:24:28.659Z,6.90
2019-05-15T03:26:59.223Z,6.90
2019-05-15T03:29:29.537Z,6.80
2019-05-15T03:32:15.343Z,6.80
2019-05-15T03:34:38.221Z,6.80
2019-05-15T03:37:04.340Z,6.70
2019-05-15T03:39:34.763Z,6.70
2019-05-15T03:42:05.096Z,6.70
2019-05-15T03:44:35.377Z,6.70
2019-05-15T03:47:09.012Z,6.70
2019-05-15T03:49:39.746Z,6.70
2019-05-15T03:52:10.205Z,6.70
2019-05-15T03:54:40.582Z,6.70
2019-05-15T03:57:10.918Z,6.60
2019-05-15T03:59:41.195Z,6.60
2019-05-15T04:02:11.461Z,6.70
2019-05-15T04:04:41.723Z,6.70
2019-05-15T04:07:11.988Z,6.60
2019-05-15T04:09:42.259Z,6.70
2019-05-15T04:12:12.527Z,6.70
2019-05-15T04:14:42.814Z,6.70
2019-05-15T04:17:13.389Z,6.70
2019-05-15T04:19:44.240Z,6.80
2019-05-15T04:22:14.643Z,6.80
2019-05-15T04:24:45.557Z,6.80
2019-05-15T04:27:19.546Z,6.80
2019-05-15T04:29:49.254Z,6.80
2019-05-15T04:32:20.325Z,6.80
2019-05-15T04:34:51.097Z,6.80
2019-05-15T04:37:21.367Z,6.90
2019-05-15T04:39:51.631Z,6.90
2019-05-15T04:42:22.163Z,6.90
2019-05-15T04:44:52.687Z,6.90
2019-05-15T04:47:23.333Z,6.90
2019-05-15T04:49:53.584Z,7.00
2019-05-15T04:52:23.875Z,7.00
2019-05-15T04:54:54.403Z,7.10
2019-05-15T04:57:28.900Z,7.10
2019-05-15T04:59:58.741Z,7.10
2019-05-15T05:02:32.240Z,7.10
2019-05-15T05:05:00.586Z,7.20
2019-05-15T05:07:31.487Z,7.20
2019-05-15T05:10:01.948Z,7.30
2019-05-15T05:12:32.617Z,7.40
2019-05-15T05:15:02.903Z,7.40
2019-05-15T05:17:33.151Z,7.50
2019-05-15T05:20:04.293Z,7.60
2019-05-15T05:22:34.558Z,7.70
2019-05-15T05:25:08.040Z,7.70
2019-05-15T05:27:38.958Z,7.80
2019-05-15T05:30:10.063Z,7.80
2019-05-15T05:32:40.811Z,7.90
2019-05-15T05:35:11.079Z,8.00
2019-05-15T05:37:41.360Z,8.00
2019-05-15T05:40:12.136Z,8.10
2019-05-15T05:42:42.666Z,8.10
2019-05-15T05:45:13.239Z,8.20
2019-05-15T05:47:43.525Z,8.20
2019-05-15T05:50:18.411Z,8.30
2019-05-15T05:52:49.061Z,8.30
2019-05-15T05:55:19.322Z,8.30
2019-05-15T05:57:49.919Z,8.40
2019-05-15T06:00:25.085Z,8.50
2019-05-15T06:02:55.363Z,8.60
2019-05-15T06:05:28.003Z,8.60
2019-05-15T06:07:58.202Z,8.70
2019-05-15T06:10:29.361Z,8.80
2019-05-15T06:12:59.661Z,8.80
2019-05-15T06:15:29.937Z,8.90
2019-05-15T06:18:00.350Z,8.90
2019-05-15T06:20:31.753Z,8.90
2019-05-15T06:23:02.025Z,9.00
2019-05-15T06:25:32.820Z,9.10
2019-05-15T06:28:03.441Z,9.20
2019-05-15T06:30:33.868Z,9.20
2019-05-15T06:33:12.540Z,9.30
2019-05-15T06:35:36.128Z,9.30
2019-05-15T06:38:08.547Z,9.30
2019-05-15T06:40:39.552Z,9.40
2019-05-15T06:43:09.942Z,9.40
2019-05-15T06:45:40.254Z,9.50
2019-05-15T06:48:10.541Z,9.50
2019-05-15T06:50:44.322Z,9.50
2019-05-15T06:53:14.606Z,9.60
2019-05-15T06:55:44.875Z,9.60
2019-05-15T06:58:18.659Z,9.70
2019-05-15T07:00:48.874Z,9.80
2019-05-15T07:03:25.507Z,9.80
2019-05-15T07:05:51.642Z,9.90
2019-05-15T07:08:21.950Z,10.00
2019-05-15T07:10:52.227Z,10.00
2019-05-15T07:13:22.803Z,9.90
2019-05-15T07:15:53.078Z,10.00
2019-05-15T07:18:23.366Z,10.00
2019-05-15T07:20:54.698Z,10.10
2019-05-15T07:23:29.101Z,10.20
2019-05-15T07:25:58.956Z,10.20
2019-05-15T07:28:29.542Z,10.30
2019-05-15T07:30:59.830Z,10.30
2019-05-15T07:33:39.571Z,10.30
2019-05-15T07:36:02.101Z,10.30
2019-05-15T07:38:32.378Z,10.40
2019-05-15T07:41:04.453Z,10.50
2019-05-15T07:43:34.995Z,10.50
2019-05-15T07:46:08.116Z,10.60
2019-05-15T07:48:38.512Z,10.70
2019-05-15T07:51:11.378Z,10.80
2019-05-15T07:53:40.905Z,10.90
2019-05-15T07:56:12.335Z,10.70
2019-05-15T07:58:42.845Z,10.80
2019-05-15T08:01:13.148Z,10.70
2019-05-15T08:03:56.667Z,10.80
2019-05-15T08:06:17.857Z,10.80
2019-05-15T08:08:48.585Z,11.00
2019-05-15T08:11:24.079Z,11.10
2019-05-15T08:13:51.074Z,11.10
2019-05-15T08:16:21.607Z,11.10
2019-05-15T08:18:51.902Z,11.20
2019-05-15T08:21:22.182Z,11.20
2019-05-15T08:23:52.467Z,11.30
2019-05-15T08:26:22.747Z,11.30
2019-05-15T08:28:53.577Z,11.40
2019-05-15T08:31:24.097Z,11.50
2019-05-15T08:33:54.383Z,11.50
2019-05-15T08:36:24.924Z,11.70
2019-05-15T08:38:55.201Z,11.70
2019-05-15T08:41:25.482Z,11.80
2019-05-15T08:43:57.862Z,11.80
2019-05-15T08:46:28.007Z,12.00
2019-05-15T08:48:58.425Z,12.20
2019-05-15T08:51:28.698Z,12.40
2019-05-15T08:53:58.987Z,12.50
2019-05-15T08:56:29.287Z,12.60
2019-05-15T08:58:59.582Z,12.50
2019-05-15T09:01:30.111Z,12.50
2019-05-15T09:04:01.058Z,12.50
2019-05-15T09:06:31.359Z,12.50
2019-05-15T09:09:01.823Z,12.50
2019-05-15T09:11:32.202Z,12.70
2019-05-15T09:14:02.519Z,12.90
2019-05-15T09:16:32.873Z,13.00
2019-05-15T09:19:03.181Z,13.10
2019-05-15T09:21:33.733Z,13.10
2019-05-15T09:24:04.019Z,13.30
2019-05-15T09:26:35.595Z,13.50
2019-05-15T09:29:06.035Z,13.70
2019-05-15T09:31:38.985Z,13.70
2019-05-15T09:34:09.246Z,13.60
2019-05-15T09:36:44.470Z,13.70
2019-05-15T09:39:13.486Z,13.80
2019-05-15T09:41:43.681Z,14.00
2019-05-15T09:44:14.232Z,14.10
2019-05-15T09:46:44.517Z,14.20
2019-05-15T09:49:14.805Z,14.30
2019-05-15T09:51:45.406Z,14.20
2019-05-15T09:54:15.682Z,14.30
2019-05-15T09:56:49.414Z,14.30
2019-05-15T09:59:18.694Z,14.50
2019-05-15T10:01:49.243Z,14.40
2019-05-15T10:04:19.523Z,14.30
2019-05-15T10:06:49.954Z,14.50
2019-05-15T10:09:20.785Z,14.60
2019-05-15T10:11:51.117Z,14.80
2019-05-15T10:14:21.472Z,14.80
2019-05-15T10:16:51.923Z,14.80
2019-05-15T10:19:22.212Z,14.90
2019-05-15T10:21:53.359Z,15.00
2019-05-15T10:24:23.826Z,14.90
2019-05-15T10:26:54.113Z,14.80
2019-05-15T10:29:24.408Z,14.90
2019-05-15T10:31:54.696Z,14.90
2019-05-15T10:34:24.974Z,15.00
2019-05-15T10:36:55.257Z,15.10
2019-05-15T10:39:25.550Z,15.30
2019-05-15T10:41:55.834Z,15.50
2019-05-15T10:44:28.432Z,15.60
2019-05-15T10:46:58.583Z,15.70
2019-05-15T10:49:29.113Z,15.80
2019-05-15T10:51:59.410Z,15.90
2019-05-15T10:54:29.824Z,15.70
2019-05-15T10:57:00.847Z,15.60
2019-05-15T10:59:31.282Z,15.70
2019-05-15T11:02:01.574Z,15.90
2019-05-15T11:04:31.854Z,15.90
2019-05-15T11:07:02.152Z,16.20
2019-05-15T11:09:32.442Z,16.20
2019-05-15T11:12:02.735Z,16.20
2019-05-15T11:14:33.009Z,16.30
2019-05-15T11:17:03.365Z,16.40
2019-05-15T11:19:36.260Z,16.70
2019-05-15T11:22:05.690Z,17.20
2019-05-15T11:24:38.563Z,17.70
2019-05-15T11:27:09.983Z,18.00
2019-05-15T11:29:39.954Z,18.20
2019-05-15T11:32:10.309Z,18.40
2019-05-15T11:34:40.904Z,18.30
2019-05-15T11:37:11.191Z,18.80
2019-05-15T11:39:46.044Z,19.40
2019-05-15T11:42:13.463Z,20.20
2019-05-15T11:44:44.263Z,20.20
2019-05-15T11:47:18.287Z,20.90
2019-05-15T11:49:48.541Z,20.90
2019-05-15T11:52:18.998Z,21.10
2019-05-15T11:54:49.551Z,21.60
2019-05-15T11:57:19.931Z,22.30
2019-05-15T11:59:55.203Z,22.30
2019-05-15T12:02:22.219Z,22.40
2019-05-15T12:04:52.577Z,22.30
2019-05-15T12:07:22.861Z,22.50
2019-05-15T12:09:54.587Z,22.80
2019-05-15T12:12:24.859Z,22.50
2019-05-15T12:14:55.451Z,22.10
2019-05-15T12:17:28.288Z,22.30
2019-05-15T12:20:05.356Z,22.70
2019-05-15T12:22:29.715Z,22.30
2019-05-15T12:25:00.972Z,21.80
2019-05-15T12:27:49.321Z,20.90
2019-05-15T12:30:20.417Z,20.80
2019-05-15T12:32:50.720Z,20.70
2019-05-15T12:35:20.973Z,20.10
2019-05-15T12:37:51.248Z,20.00
2019-05-15T13:00:38.393Z,22.30
2019-05-15T13:03:09.315Z,22.10
2019-05-15T13:05:39.638Z,22.20
2019-05-15T13:08:09.917Z,21.90
2019-05-15T13:10:40.196Z,21.80
2019-05-15T13:13:10.478Z,21.80
2019-05-15T13:15:41.548Z,21.80
2019-05-15T13:18:14.531Z,21.60
2019-05-15T13:20:43.887Z,20.70
2019-05-15T13:23:14.169Z,20.30
2019-05-15T13:25:44.463Z,20.30
2019-05-15T13:28:15.073Z,20.10
2019-05-15T13:30:45.640Z,19.90
2019-05-15T13:33:15.922Z,19.70
2019-05-15T13:35:48.480Z,19.90
2019-05-15T13:38:18.416Z,19.90
2019-05-15T13:40:48.704Z,19.80
2019-05-15T13:43:19.272Z,20.00
2019-05-15T13:45:49.559Z,19.80
2019-05-15T13:48:20.200Z,19.80
2019-05-15T13:50:50.503Z,19.40
2019-05-15T13:53:20.764Z,19.20
2019-05-15T13:55:51.041Z,19.30
2019-05-15T13:58:21.317Z,19.30
2019-05-15T14:00:51.619Z,19.40
2019-05-15T14:03:22.176Z,19.00
2019-05-15T14:05:52.467Z,19.10
2019-05-15T14:08:22.733Z,19.30
2019-05-15T14:10:53.013Z,19.40
2019-05-15T14:13:23.320Z,19.60
2019-05-15T14:15:53.589Z,19.60
2019-05-15T14:18:24.120Z,19.50
2019-05-15T14:20:54.410Z,19.70
2019-05-15T14:23:24.974Z,19.80
2019-05-15T14:25:55.310Z,19.80
2019-05-15T14:28:28.182Z,19.70
2019-05-15T14:30:58.695Z,19.70
2019-05-15T14:33:29.465Z,19.60
2019-05-15T14:35:59.817Z,19.70
2019-05-15T14:38:30.108Z,19.60
2019-05-15T14:41:00.419Z,19.50
2019-05-15T14:43:30.724Z,19.70
2019-05-15T14:46:01.178Z,19.60
2019-05-15T14:48:31.499Z,19.30
2019-05-15T14:51:01.780Z,19.10
2019-05-15T14:53:32.078Z,19.30
2019-05-15T14:56:02.385Z,19.20
2019-05-15T14:58:32.903Z,19.10
2019-05-15T15:01:04.764Z,19.20
2019-05-15T15:03:35.396Z,19.30
2019-05-15T15:06:08.472Z,19.60
2019-05-15T15:08:38.064Z,19.50
2019-05-15T15:11:08.866Z,19.50
2019-05-15T15:13:39.161Z,19.50
2019-05-15T15:16:09.447Z,19.40
2019-05-15T15:18:40.008Z,19.30
2019-05-15T15:21:10.288Z,19.30
2019-05-15T15:23:40.569Z,19.50
2019-05-15T15:26:11.028Z,19.50
2019-05-15T15:28:41.310Z,19.90
2019-05-15T15:31:11.591Z,20.00
2019-05-15T15:33:41.862Z,19.90
2019-05-15T15:36:12.146Z,19.80
2019-05-15T15:38:44.135Z,19.60
2019-05-15T15:41:14.547Z,19.60
2019-05-15T15:43:44.823Z,19.70
2019-05-15T15:46:15.102Z,19.70
2019-05-15T15:48:48.237Z,19.90
2019-05-15T15:51:18.240Z,19.50
2019-05-15T15:53:48.607Z,19.20
2019-05-15T15:56:18.878Z,19.10
2019-05-15T15:58:49.226Z,18.90
2019-05-15T16:01:19.488Z,18.80
2019-05-15T16:03:49.762Z,19.00
2019-05-15T16:06:20.033Z,18.70
2019-05-15T16:08:55.041Z,18.30
2019-05-15T16:11:22.589Z,18.20
2019-05-15T16:13:52.866Z,18.00
2019-05-15T16:16:23.150Z,17.80
2019-05-15T16:18:53.427Z,17.40
2019-05-15T16:21:23.777Z,17.30
2019-05-15T16:23:54.084Z,17.30
2019-05-15T16:26:24.361Z,17.30
2019-05-15T16:28:54.644Z,17.30
2019-05-15T16:31:24.940Z,17.20
2019-05-15T16:33:58.567Z,17.10
2019-05-15T16:36:28.581Z,16.90
2019-05-15T16:39:07.153Z,16.70
2019-05-15T16:41:30.848Z,16.70
2019-05-15T16:44:01.471Z,16.60
2019-05-15T16:46:31.742Z,16.40
2019-05-15T16:49:02.208Z,16.40
2019-05-15T16:51:32.557Z,16.10
2019-05-15T16:54:02.863Z,16.00
2019-05-15T16:56:36.317Z,16.00
2019-05-15T16:59:05.209Z,15.80
2019-05-15T17:01:35.572Z,15.70
2019-05-15T17:04:08.315Z,15.50
2019-05-15T17:06:38.808Z,15.40
2019-05-15T17:09:20.719Z,15.30
2019-05-15T17:11:42.086Z,15.20
2019-05-15T17:14:12.371Z,15.10
2019-05-15T17:16:42.925Z,14.90
2019-05-15T17:19:13.206Z,14.70
2019-05-15T17:21:43.485Z,14.80
2019-05-15T17:24:13.816Z,14.60
2019-05-15T17:26:44.094Z,14.50
2019-05-15T17:29:14.387Z,14.60
2019-05-15T17:31:44.835Z,14.50
2019-05-15T17:34:15.128Z,14.50
2019-05-15T17:36:45.410Z,14.40
2019-05-15T17:39:16.000Z,14.30
2019-05-15T17:41:48.247Z,14.30
2019-05-15T17:44:18.267Z,14.30
2019-05-15T17:46:49.026Z,14.20
2019-05-15T17:49:19.480Z,14.20
2019-05-15T17:51:49.758Z,14.20
2019-05-15T17:54:20.049Z,14.10
2019-05-15T17:56:50.332Z,14.10
2019-05-15T17:59:20.613Z,14.00
2019-05-15T18:01:50.902Z,14.00
2019-05-15T18:04:21.234Z,13.80
2019-05-15T18:06:51.465Z,13.70
2019-05-15T18:09:21.750Z,13.60
2019-05-15T18:11:52.041Z,13.60
2019-05-15T18:14:23.720Z,13.60
2019-05-15T18:16:54.001Z,13.50
2019-05-15T18:19:24.289Z,13.40
2019-05-15T18:21:54.562Z,13.30
2019-05-15T18:24:24.847Z,13.20
2019-05-15T18:26:55.440Z,13.10
2019-05-15T18:29:25.897Z,13.10
2019-05-15T18:31:56.245Z,13.10
2019-05-15T18:34:28.784Z,13.10
2019-05-15T18:36:58.794Z,13.10
2019-05-15T18:39:29.072Z,13.00
2019-05-15T18:42:00.025Z,13.00
2019-05-15T18:44:30.482Z,13.00
2019-05-15T18:47:00.763Z,13.10
2019-05-15T18:49:31.049Z,13.00
2019-05-15T18:52:01.332Z,12.90
2019-05-15T18:54:31.606Z,12.90
2019-05-15T18:57:02.202Z,12.70
2019-05-15T18:59:32.781Z,12.70
2019-05-15T19:02:03.064Z,12.70
2019-05-15T19:04:33.584Z,12.60
2019-05-15T19:07:03.937Z,12.60
2019-05-15T19:09:34.232Z,12.60
2019-05-15T19:12:04.524Z,12.60
2019-05-15T19:14:37.064Z,12.60
2019-05-15T19:17:08.206Z,12.60
2019-05-15T19:19:38.926Z,12.60
2019-05-15T19:22:09.284Z,12.60
2019-05-15T19:24:40.228Z,12.60
2019-05-15T19:27:10.529Z,12.60
2019-05-15T19:29:41.223Z,12.70
2019-05-15T19:32:11.681Z,12.80
2019-05-15T19:34:42.294Z,12.90
2019-05-15T19:37:12.817Z,12.90
2019-05-15T19:39:43.114Z,12.90
2019-05-15T19:42:13.961Z,12.80
2019-05-15T19:44:44.308Z,12.80
2019-05-15T19:47:14.846Z,12.80
2019-05-15T19:49:45.137Z,12.80
2019-05-15T19:52:17.765Z,12.70
2019-05-15T19:54:48.524Z,12.80
2019-05-15T19:57:19.542Z,12.90
2019-05-15T19:59:49.828Z,12.90
2019-05-15T20:02:20.126Z,12.80
2019-05-15T20:04:50.427Z,12.90
2019-05-15T20:07:20.744Z,12.90
2019-05-15T20:09:51.092Z,12.90
2019-05-15T20:12:21.674Z,13.00
2019-05-15T20:14:51.932Z,13.10
2019-05-15T20:17:22.219Z,13.10
2019-05-15T20:19:52.497Z,13.20
2019-05-15T20:22:22.778Z,13.20
2019-05-15T20:24:53.048Z,13.30
2019-05-15T20:27:23.337Z,13.60
2019-05-15T20:29:53.618Z,14.00
2019-05-15T20:32:23.913Z,14.30
2019-05-15T20:34:57.700Z,14.40
2019-05-15T20:37:28.902Z,14.30
2019-05-15T20:39:59.654Z,14.10
2019-05-15T20:42:30.212Z,13.90
2019-05-15T20:45:00.499Z,13.60
2019-05-15T20:47:30.777Z,13.50
2019-05-15T20:50:01.053Z,13.40
2019-05-15T20:52:31.332Z,13.30
2019-05-15T20:55:01.618Z,13.20
2019-05-15T20:57:31.898Z,13.10
2019-05-15T21:00:02.179Z,13.00
2019-05-15T21:02:32.455Z,12.90
2019-05-15T21:05:02.743Z,12.90
2019-05-15T21:07:38.699Z,12.80
2019-05-15T21:10:08.600Z,12.70
2019-05-15T21:12:40.976Z,12.70
2019-05-15T21:15:11.854Z,12.60
2019-05-15T21:17:43.612Z,12.60
2019-05-15T21:20:14.533Z,12.50
2019-05-15T21:22:44.801Z,12.50
2019-05-15T21:25:15.310Z,12.50
2019-05-15T21:27:45.708Z,12.50
2019-05-15T21:30:18.896Z,12.50
2019-05-15T21:32:49.756Z,12.50
2019-05-15T21:35:20.069Z,12.40
2019-05-15T21:37:50.358Z,12.40
2019-05-15T21:40:20.635Z,12.40
2019-05-15T21:42:51.004Z,12.30
2019-05-15T21:45:21.267Z,12.30
2019-05-15T21:47:51.550Z,12.20
2019-05-15T21:50:21.825Z,12.20
2019-05-15T21:52:52.110Z,12.20
2019-05-15T21:55:22.386Z,12.10
2019-05-15T21:57:52.951Z,12.10
2019-05-15T22:00:32.653Z,12.10
2019-05-15T22:03:03.286Z,12.00
2019-05-15T22:05:33.908Z,12.00
2019-05-15T22:08:04.602Z,12.00
2019-05-15T22:10:34.885Z,12.00
2019-05-15T22:13:05.566Z,11.90
2019-05-15T22:15:35.851Z,11.90
2019-05-15T22:18:08.683Z,11.80
2019-05-15T22:20:39.158Z,11.80
2019-05-15T22:23:09.782Z,11.80
2019-05-15T22:25:40.241Z,11.70
2019-05-15T22:28:10.515Z,11.70
2019-05-15T22:30:40.885Z,11.70
2019-05-15T22:33:11.156Z,11.70
2019-05-15T22:35:41.508Z,11.60
2019-05-15T22:38:12.789Z,11.70
2019-05-15T22:40:43.901Z,11.60
2019-05-15T22:43:14.182Z,11.60
2019-05-15T22:45:45.157Z,11.50
2019-05-15T22:48:18.062Z,11.50
2019-05-15T22:50:47.966Z,11.50
2019-05-15T22:53:18.337Z,11.50
2019-05-15T22:55:48.986Z,11.50
2019-05-15T22:58:19.270Z,11.50
2019-05-15T23:00:49.565Z,11.50
2019-05-15T23:03:19.843Z,11.50
2019-05-15T23:05:50.416Z,11.40
2019-05-15T23:08:21.767Z,11.40
2019-05-15T23:10:52.044Z,11.40
2019-05-15T23:13:22.338Z,11.40
2019-05-15T23:15:52.614Z,11.40
2019-05-15T23:18:22.902Z,11.40
2019-05-15T23:20:53.494Z,11.40
2019-05-15T23:23:23.775Z,11.40
2019-05-15T23:25:54.723Z,11.40
2019-05-15T23:28:28.131Z,11.40
2019-05-15T23:30:59.209Z,11.30
2019-05-15T23:33:30.601Z,11.30
2019-05-15T23:36:00.893Z,11.30
2019-05-15T23:38:31.166Z,11.20
2019-05-15T23:41:01.451Z,11.20
2019-05-15T23:43:31.721Z,11.10
2019-05-15T23:46:02.012Z,11.10
2019-05-15T23:48:32.595Z,11.10
2019-05-15T23:51:02.873Z,11.10
2019-05-15T23:53:33.164Z,11.00
2019-05-15T23:56:03.456Z,11.10
2019-05-15T23:58:33.737Z,11.00
